AGROMETEOROLOŠKI PORTAL
Vinorodna pokrajina

Temelj dobrega kmetovanja.

Izpis lokacij s podatki meritev in opazovanj za vse lokacije

Pregled minimalnih nočnih temperatur med 13.4.2024 od 22:00 in 14.4.2024 do 10:00 (zapri pregled)
Zahodna Slovenija
Lokacija Nadmorska višina Lega Višina meritve senzorja Datum in čas meritve Dosežena min. temperatura RH Veter (m/s) Temp. rosišča Temp. mokrega termometra
Bilje UVHVVR 55 m 2 m 14.4.2024 06:00 10,8 90,2 9,3 10,0
Bilje UVHVVR 55 m 50 cm 14.4.2024 06:00 10,1 90,2 8,6 9,3
Čelje 496 m V 2 m 14.4.2024 06:30 9,2 85,6 6,9 8,0
Dragonja 34 m S 2 m 14.4.2024 06:30 10,6 94,3 9,7 10,1
Dutovlje 316 m J 2 m 14.4.2024 07:00 10,7 81,1 7,6 9,1
Komen 269 m J 2 m 14.4.2024 06:30 11,2 86,1 9,0 10,0
Kozana 182 m S 2 m 14.4.2024 07:30 16,1 76,1 2,5 11,9 13,7
Miren. 47 m S 2 m 14.4.2024 07:00 9,3 100,0 0,4 9,3 9,3
Potoče 75 m 2 m 14.4.2024 06:00 8,6 95,3 7,9 8,2
Pradisiol 3 m S 2 m 14.4.2024 07:00 8,1 100,0 8,1 8,1
Puče 275 m J 2 m 14.4.2024 06:30 18,5 53,5 0,7 8,9 13,1
Purisima 50 m J 2 m 14.4.2024 06:30 13,1 74,9 8,8 10,8
Slap 112 m 2 m 14.4.2024 07:00 11,7 88,6 0,0 9,9 10,7
Sužid 231 m 2 m 14.4.2024 07:00 8,5 99,9 8,5 8,5
Šlovrenc 92 m JZ 2 m 14.4.2024 06:00 10,6 100,0 10,6 10,6
Truške 230 m 2 m 14.4.2024 06:00 15,9 61,4 8,5 11,9
Vipolže 59 m 2 m 14.4.2024 05:30 11,0 93,0 1,1 9,9 10,4
Višnjevik 223 m V 2 m 14.4.2024 06:00 16,2 76,2 12,0 13,8
Vogrsko 62 m 2 m 14.4.2024 06:30 9,3 99,6 0,0 9,2 9,3
Zavrhek 340 m J 2 m 14.4.2024 06:30 6,4 99,4 6,3 6,4
Ajdovščina 83 m 2 m 14.4.2024 07:00 9,7 95,0 0,0 8,9 9,3
BILJE ARSO 55 m 2 m 14.4.2024 06:30 11,0 93,0 2,5 9,9 10,4
BILJE ARSO 55 m 5 cm 14.4.2024 06:00 9,3 91,0 2,2 7,9 8,6
Bovec - letališče ARSO 438 m 2 m 14.4.2024 06:30 9,4 90,0 1,7 7,9 8,6
GODNJE ARSO 315 m 2 m 14.4.2024 06:30 11,4 80,0 3,1 8,1 9,7
Ilirska Bistrica - Koseze ARSO 415 m 2 m 14.4.2024 07:00 6,3 94,0 1,1 5,4 5,9
KUBED ARSO 236 m 2 m 14.4.2024 07:00 10,3 93,0 9,2 9,7
PODNANOS - ARSO 153 m 2 m 14.4.2024 03:00 13,3 82,0 3,1 10,3 11,6
Portorož-letališče ARSO 0 m 2 m 14.4.2024 06:00 11,7 85,0 4,7 9,3 10,4
POSTOJNA ARSO 534 m 2 m 14.4.2024 07:00 5,8 95,0 1,7 5,1 5,4
ŠKOCJAN ARSO 420 m 2 m 14.4.2024 06:30 8,5 93,0 2,2 7,4 8,0
VEDRIJAN ARSO 228 m 2 m 14.4.2024 06:30 16,1 74,0 11,5 13,4
ZADLOG - ARSO 716 m 2 m 14.4.2024 04:30 8,3 90,0 6,8 7,5
Beneša - Ankaran (ZRSKP) 62 m 2 m 14.4.2024 06:00 14,3 69,1 1,1 8,7 11,3
Mala Seva - Izola (ZRSKP) 90 m 2 m 14.4.2024 06:30 18,2 47,2 0,9 6,8 12,0
Marezeige - Koper (ZRS) 189 m J 2 m 14.4.2024 05:30 11,7 85,6 0,0 9,4 10,5
Semedela - Markovec (ZRSKP) 149 m 2 m 14.4.2024 07:00 16,1 57,3 0,0 7,7 11,6
Kapelski vrh DRSI 285 m 2 m 14.4.2024 06:00 14,0 25,0 0,3 -5,7 5,9
Kobarid DRSI 242 m 2 m 14.4.2024 07:30 11,0 7,0 0,0 -23,4 1,8
Koper DRSI 5 m 2 m 14.4.2024 06:00 13,0 94,0 1,9 12,1 12,5
Lazaret DRSI 2 m 2 m 14.4.2024 06:00 13,0 85,0 1,1 10,5 11,6
Valeta DRSI 100 m 2 m 14.4.2024 06:30 16,2 59,0 0,8 8,2 11,8
Cerovo 157 m 2 m 14.4.2024 06:00 16,2 68,2 10,3 12,9
Hruševlje 105 m 2 m 14.4.2024 06:00 12,8 93,2 11,7 12,2
Plešivo 109 m 2 m 14.4.2024 06:30 11,8 98,5 0,5 11,6 11,7
Osrednja Slovenija
Lokacija Nadmorska višina Lega Višina meritve senzorja Datum in čas meritve Dosežena min. temperatura RH Veter (m/s) Temp. rosišča Temp. mokrega termometra
Borovnica 288 m 2 m 14.4.2024 06:30 6,0 100,0 0,4 6,0 6,0
Brdo pri Lukovici 368 m J 2 m 14.4.2024 06:00 8,7 93,0 7,6 8,2
Češnjevek (Cerklje) 405 m S 2 m 14.4.2024 06:00 7,3 98,6 1,3 7,1 7,2
Gabrska Gora 487 m 2 m 14.4.2024 06:30 13,8 72,5 9,0 11,2
Jablje 302 m S 20 cm 14.4.2024 06:30 6,5 96,4 0,1 6,0 6,2
Jablje 302 m S 2 m 14.4.2024 06:30 8,8 96,4 0,1 8,3 8,5
Kamnik 377 m JV 2 m 14.4.2024 06:30 9,2 95,9 8,6 8,9
Kovor 514 m 2 m 14.4.2024 07:00 11,2 72,5 6,5 8,7
Kovor 514 m 20 cm 14.4.2024 07:30 10,3 68,1 4,7 7,5
Ljubljana KIS 297 m S 2 m 14.4.2024 06:30 11,0 89,0 9,3 10,1
Podbrezje 456 m JV 2 m 14.4.2024 06:00 9,8 95,0 9,0 9,4
Polževo 612 m 2 m 14.4.2024 06:00 13,4 74,8 9,0 11,0
Resje 503 m 2 m 14.4.2024 06:00 9,0 82,7 6,2 7,6
Šentjakob 279 m 20 cm 14.4.2024 06:30 6,9 99,9 6,9 6,9
Šentjakob 279 m 2 m 14.4.2024 07:00 8,1 99,9 8,1 8,1
Vnajnarje 667 m S 2 m 14.4.2024 06:30 13,3 69,0 7,8 10,4
Žabnica (Dorfarje) 372 m 2 m 14.4.2024 07:00 8,0 97,6 0,6 7,6 7,8
BOHINJSKA ČEŠNJICA - ARSO 596 m 2 m 14.4.2024 07:00 7,8 90,0 6,3 7,0
BORŠT PRI GORENJI VASI ARSO 532 m 2 m 14.4.2024 06:30 11,1 92,0 1,4 9,9 10,4
BRNIK - LETALIŠČE - ARSO 364 m 2 m 14.4.2024 06:00 7,7 94,0 1,7 6,8 7,3
Lesce 515 m 2 m 14.4.2024 07:00 9,1 85,0 1,7 6,7 7,9
LITIJA ARSO 263 m 2 m 14.4.2024 06:30 8,9 96,0 8,3 8,6
Ljubljana - Bežigrad ARSO 299 m 2 m 14.4.2024 06:30 11,0 89,0 2,2 9,3 10,1
LOGATEC - ARSO 486 m 2 m 14.4.2024 07:00 5,5 95,0 4,8 5,2
NOVA VAS - BLOKE - ARSO 718 m 2 m 14.4.2024 06:00 3,9 94,0 3,0 3,5
VRHNIKA ARSO 367 m 2 m 14.4.2024 07:30 12,3 77,0 2,8 8,4 10,2
Jeprca DRSI 360 m 2 m 14.4.2024 05:30 8,8 92,0 1,1 7,6 8,2
Kranj - Delavski most DRSI 380 m 2 m 14.4.2024 06:30 9,6 89,0 0,7 7,9 8,7
Krtina 1 DRSI 308 m 2 m 14.4.2024 05:00 9,0 97,0 1,1 8,6 8,8
Moste pri Komendi DRSI 331 m 2 m 14.4.2024 05:00 10,0 100,0 0,0 10,0 10,0
Podvin DRSI 489 m 2 m 14.4.2024 04:30 7,0 100,0 0,8 7,0 7,0
Vrhnika AC priključek DRSI 293 m 2 m 14.4.2024 06:00 10,0 69,0 0,0 4,6 7,3
Celjska in Koroška regija
Lokacija Nadmorska višina Lega Višina meritve senzorja Datum in čas meritve Dosežena min. temperatura RH Veter (m/s) Temp. rosišča Temp. mokrega termometra
Bistrica ob Sotli 324 m J 2 m 14.4.2024 06:30 12,7 81,6 9,6 11,0
Braslovče (Pšaker) 322 m JV 2 m 14.4.2024 06:30 7,6 99,2 0,0 7,5 7,6
Braslovče (Pšaker) 322 m JV 50 cm 14.4.2024 06:30 7,7 99,2 0,0 7,6 7,7
Črnova (Gradišnik) 453 m JZ 2 m 14.4.2024 04:00 10,2 90,6 8,7 9,4
Gabernik-Rogaška 379 m JZ 2 m 14.4.2024 07:00 11,3 80,8 8,1 9,6
Kasaze (Mirosan) 279 m S 2 m 14.4.2024 06:00 8,8 97,7 1,0 8,5 8,6
Latkova vas 279 m S 2 m 14.4.2024 05:30 9,4 88,0 1,8 7,5 8,4
Ojstriška vas 308 m Z 2 m 14.4.2024 06:30 7,9 99,8 7,9 7,9
Radlje ob Dravi 352 m 2 m 14.4.2024 06:30 8,4 99,4 8,3 8,4
Slom 279 m S 2 m 14.4.2024 06:00 7,1 100,0 7,1 7,1
Slovenske Konjice 377 m 2 m 14.4.2024 03:30 13,9 72,3 9,0 11,2
Škofja vas 246 m 2 m 14.4.2024 06:30 7,4 100,0 0,4 7,4 7,4
Virštanj 368 m S 2 m 14.4.2024 06:30 14,0 73,2 9,3 11,4
Žalec (PDC) 254 m S 2 m 14.4.2024 06:30 9,1 100,0 0,3 9,1 9,1
Celje - Medlog ARSO 241 m S 2 m 14.4.2024 06:00 7,4 97,0 1,1 7,0 7,2
PODČETRTEK - ATOMSKE TOPLICE ARSO 201 m 2 m 14.4.2024 07:00 8,5 98,0 1,7 8,2 8,4
RAVNE NA KOROŠKEM - ARSO 394 m 2 m 14.4.2024 06:30 8,1 93,0 0,8 7,0 7,6
ROGAŠKA SLATINA ARSO 289 m 2 m 14.4.2024 07:00 9,3 97,0 0,8 8,9 9,1
SLOVENSKE KONJICE ARSO 315 m 2 m 14.4.2024 06:30 9,9 90,0 8,3 9,1
ŠMARTNO PRI SLOVENJ GRADCU ARSO 442 m 2 m 14.4.2024 06:30 6,5 97,0 2,2 6,1 6,3
ŠMARTNO PRI SLOVENJ GRADCU ARSO 442 m 5 cm 14.4.2024 06:30 3,3 97,0 2,2 2,9 3,1
Črnova DRSI 304 m 2 m 14.4.2024 07:00 7,7 90,0 1,0 6,2 6,9
Podplat DRSI 230 m 2 m 14.4.2024 06:30 7,7 91,0 0,3 6,3 7,0
Radlje DRSI 355 m 2 m 14.4.2024 06:30 8,1 97,0 0,7 7,7 7,9
Rimske Toplice DRSI 210 m 2 m 14.4.2024 07:00 8,6 91,0 0,5 7,2 7,9
Šentrupert DRSI 280 m 2 m 14.4.2024 05:00 11,0 52,0 1,1 1,6 6,6
Jugovzhodna Slovenija
Lokacija Nadmorska višina Lega Višina meritve senzorja Datum in čas meritve Dosežena min. temperatura RH Veter (m/s) Temp. rosišča Temp. mokrega termometra
Artiče 201 m J 2 m 14.4.2024 07:00 10,6 95,7 9,9 10,3
Bizeljsko 347 m J 2 m 14.4.2024 06:30 14,0 71,4 8,9 11,2
Blanca 278 m JZ 2 m 14.4.2024 06:30 9,4 99,3 9,3 9,4
Črnomelj 253 m JZ 2 m 14.4.2024 06:30 12,0 78,2 8,3 10,0
Drašiči 244 m J 2 m 14.4.2024 06:30 10,7 91,4 9,4 10,0
Kostanjevica na Krki 165 m 2 m 14.4.2024 06:00 9,1 100,0 9,1 9,1
Mali Podlog (Krško) 158 m 2 m 14.4.2024 06:30 8,7 96,6 0,8 8,2 8,4
Mirna peč - začasna 258 m 2 m 14.4.2024 07:00 8,7 93,9 7,8 8,2
Otočec 198 m J 2 m 14.4.2024 06:30 10,3 89,9 8,7 9,5
Rodine pri Trebnjem APS 284 m J 2 m 14.4.2024 06:30 8,6 99,6 0,6 8,5 8,6
Sremič 466 m JZ 2 m 14.4.2024 08:00 13,8 70,5 8,5 11,0
Šentjernej APS 231 m JV 2 m 14.4.2024 07:00 11,3 93,6 1,0 10,3 10,8
Šentjernej APS 231 m JV 50 cm 14.4.2024 06:30 9,8 91,1 1,3 8,4 9,1
CERKLJE - LETALIŠČE ARSO 155 m 2 m 14.4.2024 06:30 8,8 94,0 1,4 7,9 8,3
ČRNOMELJ - DOBLIČE ARSO 155 m 2 m 14.4.2024 07:00 7,8 95,0 0,0 7,1 7,4
HOČKO POHORJE - ARSO 585 m 2 m 14.4.2024 05:00 16,9 53,0 7,3 11,7
KRŠKO - NEK ARSO 155 m 2 m 14.4.2024 07:00 10,8 100,0 2,5 10,8 10,8
MALKOVEC ARSO 397 m 2 m 14.4.2024 06:30 12,2 83,0 3,6 9,4 10,7
METLIKA ARSO 166 m 2 m 14.4.2024 07:00 8,8 94,0 7,9 8,3
NOVO MESTO ARSO 220 m 2 m 14.4.2024 06:30 9,8 91,0 1,7 8,4 9,1
NOVO MESTO ARSO 220 m 5 cm 14.4.2024 06:30 7,8 91,0 1,7 6,4 7,1
TREBNJE ARSO 303 m 2 m 14.4.2024 06:30 8,7 95,0 8,0 8,3
Elbl-2 DRSI 314 m 2 m 14.4.2024 06:00 14,0 100,0 1,1 14,0 14,0
Krško DRSI 167 m 2 m 14.4.2024 06:30 10,0 91,0 2,2 8,6 9,3
Trebnje DRSI 270 m 2 m 14.4.2024 06:30 7,9 87,0 0,5 5,9 6,9
Severovzhodna Slovenija
Lokacija Nadmorska višina Lega Višina meritve senzorja Datum in čas meritve Dosežena min. temperatura RH Veter (m/s) Temp. rosišča Temp. mokrega termometra
Dravinjski vrh 304 m Z 2 m 14.4.2024 06:30 14,1 70,1 1,3 8,7 11,2
Godemarci 212 m JV 50 cm 14.4.2024 06:00 8,2 99,5 8,1 8,2
Godemarci 212 m JV 2 m 14.4.2024 06:30 7,8 99,8 7,8 7,8
Litmerk - bionomija in RLP 314 m JZ 2 m 14.4.2024 08:30 15,1 66,7 9,0 11,7
Maribor - BTŠ 276 m J 2 m 14.4.2024 06:30 8,6 94,9 0,7 7,8 8,2
Meranovo 501 m JV 2 m 14.4.2024 06:30 16,4 50,2 6,0 10,9
Moškanjci 213 m 2 m 14.4.2024 05:30 7,8 93,0 1,4 6,7 7,3
Pohorski dvor 313 m V 2 m 14.4.2024 05:00 10,3 82,5 7,5 8,8
Ritoznoj 402 m JV 2 m 14.4.2024 06:30 14,4 64,3 7,8 10,8
Savci 245 m JZ 2 m 14.4.2024 06:30 8,3 96,0 7,7 8,0
Selnica ob Dravi 311 m SV 2 m 14.4.2024 03:30 12,8 81,3 1,7 9,7 11,1
Selo 299 m J 2 m 14.4.2024 06:30 13,2 82,6 10,3 11,6
Stročja vas 240 m SV 2 m 14.4.2024 05:30 12,2 76,5 0,9 8,2 10,1
Špičnik 338 m 2 m 14.4.2024 06:30 8,2 100,0 8,2 8,2
Vidonci 337 m JV 2 m 14.4.2024 06:30 9,3 95,1 8,6 8,9
Vitomarci 299 m SV 2 m 14.4.2024 06:30 11,4 91,9 10,1 10,7
Zbigovci - RLP 299 m Z 2 m 14.4.2024 06:00 11,9 85,7 9,6 10,6
Zimica 296 m Z 2 m 14.4.2024 06:00 10,8 92,7 9,7 10,2
GAČNIK ARSO 291 m 2 m 14.4.2024 07:00 8,9 95,0 0,6 8,1 8,5
JERUZALEM - ARSO 335 m 2 m 14.4.2024 06:30 14,6 68,0 8,8 11,4
LENDAVA - TERME ARSO 161 m 2 m 14.4.2024 07:00 9,6 94,0 0,8 8,7 9,1
MARIBOR - LETALIŠČE ARSO 264 m 2 m 14.4.2024 06:00 8,0 92,0 1,7 6,8 7,4
MARIBOR - VRBANSKI PLATO ARSO 274 m 2 m 14.4.2024 06:30 9,0 92,0 1,7 7,8 8,4
MARINČA VAS - ARSO 272 m 2 m 14.4.2024 06:30 6,4 98,0 6,1 6,3
MURSKA SOBOTA - RAKIČAN ARSO 184 m 2 m 14.4.2024 06:30 8,1 97,0 1,4 7,7 7,9
MURSKA SOBOTA - RAKIČAN ARSO 184 m 5 cm 14.4.2024 06:00 5,9 97,0 1,4 5,5 5,7
PTUJ - ARSO 222 m 2 m 14.4.2024 06:30 7,5 98,0 1,1 7,2 7,4
SOTINSKI BREG ARSO 415 m 2 m 14.4.2024 05:00 14,0 75,0 2,8 9,7 11,6
Šentilj DRSI 300 m 2 m 14.4.2024 05:30 10,0 93,0 0,0 8,9 9,4
Postaje, katerih podatke prikazujemo na portalu, so postaje proizvajalca Adcon Telemetry in Pessl (UVHVVR/MKGP), postaje ARSO in postaje DRSI.

IZJAVA O OMEJITVI ODGOVORNOSTI: Uprava Republike Slovenije za varno hrano, veterinarstvo in varstvo rastlin (Uprava) skupaj z Opazovalno napovedovalno službo zdravstvenega varstva rastlin skrbi za nemoteno delovanje in vzdrževanje meteoroloških podatkov iz mreže agrometeoroloških postaj (Adcon Telemety). Agrometeorološki podatki, ki so objavljeni na tej strani, so zgolj informativne narave. Za morebitne vsebinske napake, do katerih lahko pride zaradi tehničnih težav pri vzdrževanju mreže, napak merilne opreme ali drugih nepredvidljivih vzrokov, napak pri vnosu, posodabljanja vsebin, Uprava ne prevzema odgovornosti, kakor tudi ne zaradi nepravilnega delovanja in/ali nedostopnosti vsebine teh spletnih strani. Uprava tudi ne prevzema odgovornosti za kakršnokoli neposredno ali posredno izgubo oziroma škodo, materialno in nematerialno, ki bi nastala zaradi dostopa, uporabe ali odločitve, sprejete na podlagi informacij, objavljenih na teh spletnih straneh, kakor tudi ne zaradi nepravilnega delovanja in/ali nedostopnosti vsebine teh spletnih strani. Uprava si pridržuje pravico do spremembe oziroma umika vsebine, deloma ali v celoti, brez predhodne najave. Vsak poskus nepooblaščenega spreminjanja ali poškodovanja spletnih strani, kot tudi nepooblaščen dostop do informacij mimo spletnih strani in do drugih vsebin, je kaznivo dejanje. Pri uporabi vsebin, objavljenih na portalu, je potrebno navesti vir podatkov (UVHVVR, Agrometeorološki portal Slovenije) in upoštevati avtorske pravice.